sensor_id;sensor_type;location;lat;lon;timestamp;P1;durP1;ratioP1;P2;durP2;ratioP2
54121;SDS011;40029;58.708;50.190;2023-03-20T00:00:27;11.68;;;4.20;;
54121;SDS011;40029;58.708;50.190;2023-03-20T00:03:01;14.18;;;4.78;;
54121;SDS011;40029;58.708;50.190;2023-03-20T00:05:33;17.40;;;5.20;;
54121;SDS011;40029;58.708;50.190;2023-03-20T00:08:04;13.50;;;5.07;;
54121;SDS011;40029;58.708;50.190;2023-03-20T00:10:36;24.90;;;5.93;;
54121;SDS011;40029;58.708;50.190;2023-03-20T00:15:44;17.48;;;5.22;;
54121;SDS011;40029;58.708;50.190;2023-03-20T00:18:16;12.57;;;5.03;;
54121;SDS011;40029;58.708;50.190;2023-03-20T00:23:21;15.52;;;4.82;;
54121;SDS011;40029;58.708;50.190;2023-03-20T00:25:52;13.65;;;4.75;;
54121;SDS011;40029;58.708;50.190;2023-03-20T00:31:17;12.65;;;4.95;;
54121;SDS011;40029;58.708;50.190;2023-03-20T00:33:59;19.75;;;5.28;;
54121;SDS011;40029;58.708;50.190;2023-03-20T00:36:31;19.15;;;4.75;;
54121;SDS011;40029;58.708;50.190;2023-03-20T00:39:03;15.07;;;4.55;;
54121;SDS011;40029;58.708;50.190;2023-03-20T00:46:51;18.10;;;4.75;;
54121;SDS011;40029;58.708;50.190;2023-03-20T00:49:25;12.05;;;3.60;;
54121;SDS011;40029;58.708;50.190;2023-03-20T00:52:04;9.05;;;3.10;;
54121;SDS011;40029;58.708;50.190;2023-03-20T00:54:35;8.15;;;3.72;;
54121;SDS011;40029;58.708;50.190;2023-03-20T00:59:40;8.90;;;3.45;;
54121;SDS011;40029;58.708;50.190;2023-03-20T01:02:20;10.80;;;3.58;;
54121;SDS011;40029;58.708;50.190;2023-03-20T01:04:56;9.57;;;2.97;;
54121;SDS011;40029;58.708;50.190;2023-03-20T01:07:29;10.25;;;3.83;;
54121;SDS011;40029;58.708;50.190;2023-03-20T01:10:00;8.77;;;3.70;;
54121;SDS011;40029;58.708;50.190;2023-03-20T01:12:33;9.80;;;3.50;;
54121;SDS011;40029;58.708;50.190;2023-03-20T01:15:09;5.90;;;3.45;;
54121;SDS011;40029;58.708;50.190;2023-03-20T01:17:46;10.85;;;4.35;;
54121;SDS011;40029;58.708;50.190;2023-03-20T01:20:22;11.88;;;5.35;;
54121;SDS011;40029;58.708;50.190;2023-03-20T01:22:56;9.10;;;4.13;;
54121;SDS011;40029;58.708;50.190;2023-03-20T01:25:27;9.25;;;4.43;;
54121;SDS011;40029;58.708;50.190;2023-03-20T01:27:59;14.45;;;5.55;;
54121;SDS011;40029;58.708;50.190;2023-03-20T01:30:31;9.32;;;3.83;;
54121;SDS011;40029;58.708;50.190;2023-03-20T01:33:17;14.55;;;4.88;;
54121;SDS011;40029;58.708;50.190;2023-03-20T01:35:54;19.10;;;5.40;;
54121;SDS011;40029;58.708;50.190;2023-03-20T01:38:28;20.33;;;5.40;;
54121;SDS011;40029;58.708;50.190;2023-03-20T01:43:47;19.25;;;5.32;;
54121;SDS011;40029;58.708;50.190;2023-03-20T01:46:22;22.38;;;5.85;;
54121;SDS011;40029;58.708;50.190;2023-03-20T01:49:07;19.77;;;6.07;;
54121;SDS011;40029;58.708;50.190;2023-03-20T01:51:39;16.50;;;5.50;;
54121;SDS011;40029;58.708;50.190;2023-03-20T01:54:16;18.02;;;5.90;;
54121;SDS011;40029;58.708;50.190;2023-03-20T01:57:10;16.38;;;5.05;;
54121;SDS011;40029;58.708;50.190;2023-03-20T01:59:52;16.33;;;5.63;;
54121;SDS011;40029;58.708;50.190;2023-03-20T02:02:34;15.20;;;4.38;;
54121;SDS011;40029;58.708;50.190;2023-03-20T02:05:08;10.20;;;3.38;;
54121;SDS011;40029;58.708;50.190;2023-03-20T02:07:41;11.20;;;4.00;;
54121;SDS011;40029;58.708;50.190;2023-03-20T02:10:20;11.90;;;3.63;;
54121;SDS011;40029;58.708;50.190;2023-03-20T02:12:58;6.93;;;3.33;;
54121;SDS011;40029;58.708;50.190;2023-03-20T02:16:38;7.63;;;3.78;;
54121;SDS011;40029;58.708;50.190;2023-03-20T02:19:02;8.48;;;3.28;;
54121;SDS011;40029;58.708;50.190;2023-03-20T02:28:32;11.23;;;4.15;;
54121;SDS011;40029;58.708;50.190;2023-03-20T02:40:31;8.13;;;3.55;;
54121;SDS011;40029;58.708;50.190;2023-03-20T02:51:34;17.65;;;5.30;;
54121;SDS011;40029;58.708;50.190;2023-03-20T02:54:12;11.73;;;4.40;;
54121;SDS011;40029;58.708;50.190;2023-03-20T02:57:05;13.18;;;4.97;;
54121;SDS011;40029;58.708;50.190;2023-03-20T03:00:23;12.57;;;4.57;;
54121;SDS011;40029;58.708;50.190;2023-03-20T03:05:47;13.93;;;5.18;;
54121;SDS011;40029;58.708;50.190;2023-03-20T03:08:24;9.75;;;5.55;;
54121;SDS011;40029;58.708;50.190;2023-03-20T03:11:02;8.52;;;4.85;;
54121;SDS011;40029;58.708;50.190;2023-03-20T03:13:37;10.90;;;4.70;;
54121;SDS011;40029;58.708;50.190;2023-03-20T03:16:14;11.00;;;4.72;;
54121;SDS011;40029;58.708;50.190;2023-03-20T03:18:50;7.88;;;3.65;;
54121;SDS011;40029;58.708;50.190;2023-03-20T03:21:30;11.40;;;4.65;;
54121;SDS011;40029;58.708;50.190;2023-03-20T03:24:03;7.78;;;4.30;;
54121;SDS011;40029;58.708;50.190;2023-03-20T03:26:36;8.75;;;3.80;;
54121;SDS011;40029;58.708;50.190;2023-03-20T03:29:11;7.20;;;3.63;;
54121;SDS011;40029;58.708;50.190;2023-03-20T03:31:46;5.70;;;3.55;;
54121;SDS011;40029;58.708;50.190;2023-03-20T03:34:19;11.98;;;6.25;;
54121;SDS011;40029;58.708;50.190;2023-03-20T03:37:01;15.02;;;7.53;;
54121;SDS011;40029;58.708;50.190;2023-03-20T03:39:41;14.35;;;6.20;;
54121;SDS011;40029;58.708;50.190;2023-03-20T03:47:34;9.85;;;4.95;;
54121;SDS011;40029;58.708;50.190;2023-03-20T03:50:17;8.45;;;3.70;;
54121;SDS011;40029;58.708;50.190;2023-03-20T03:53:06;6.68;;;4.22;;
54121;SDS011;40029;58.708;50.190;2023-03-20T03:55:42;10.07;;;4.15;;
54121;SDS011;40029;58.708;50.190;2023-03-20T04:01:01;7.25;;;3.72;;
54121;SDS011;40029;58.708;50.190;2023-03-20T04:03:35;6.35;;;3.25;;
54121;SDS011;40029;58.708;50.190;2023-03-20T04:06:10;11.32;;;3.75;;
54121;SDS011;40029;58.708;50.190;2023-03-20T04:08:42;6.50;;;3.17;;
54121;SDS011;40029;58.708;50.190;2023-03-20T04:11:15;7.35;;;3.95;;
54121;SDS011;40029;58.708;50.190;2023-03-20T04:13:49;6.50;;;3.38;;
54121;SDS011;40029;58.708;50.190;2023-03-20T04:16:22;6.93;;;3.45;;
54121;SDS011;40029;58.708;50.190;2023-03-20T04:18:54;5.85;;;3.10;;
54121;SDS011;40029;58.708;50.190;2023-03-20T04:21:26;7.07;;;3.45;;
54121;SDS011;40029;58.708;50.190;2023-03-20T04:23:57;8.60;;;3.95;;
54121;SDS011;40029;58.708;50.190;2023-03-20T04:26:28;5.45;;;3.60;;
54121;SDS011;40029;58.708;50.190;2023-03-20T04:29:00;10.27;;;3.58;;
54121;SDS011;40029;58.708;50.190;2023-03-20T04:32:04;10.25;;;4.18;;
54121;SDS011;40029;58.708;50.190;2023-03-20T04:34:56;9.38;;;4.35;;
54121;SDS011;40029;58.708;50.190;2023-03-20T04:37:46;7.82;;;3.45;;
54121;SDS011;40029;58.708;50.190;2023-03-20T04:40:18;9.13;;;3.92;;
54121;SDS011;40029;58.708;50.190;2023-03-20T04:42:50;9.82;;;4.40;;
54121;SDS011;40029;58.708;50.190;2023-03-20T04:45:22;9.68;;;4.72;;
54121;SDS011;40029;58.708;50.190;2023-03-20T04:47:53;12.95;;;4.50;;
54121;SDS011;40029;58.708;50.190;2023-03-20T04:50:26;10.88;;;4.53;;
54121;SDS011;40029;58.708;50.190;2023-03-20T04:52:58;10.43;;;4.00;;
54121;SDS011;40029;58.708;50.190;2023-03-20T04:55:30;9.35;;;5.30;;
54121;SDS011;40029;58.708;50.190;2023-03-20T04:58:01;18.90;;;4.70;;
54121;SDS011;40029;58.708;50.190;2023-03-20T05:00:33;13.73;;;5.60;;
54121;SDS011;40029;58.708;50.190;2023-03-20T05:03:04;16.05;;;6.00;;
54121;SDS011;40029;58.708;50.190;2023-03-20T05:05:35;17.88;;;6.68;;
54121;SDS011;40029;58.708;50.190;2023-03-20T05:08:08;22.13;;;7.68;;
54121;SDS011;40029;58.708;50.190;2023-03-20T05:10:41;17.55;;;7.13;;
54121;SDS011;40029;58.708;50.190;2023-03-20T05:13:32;20.42;;;7.07;;
54121;SDS011;40029;58.708;50.190;2023-03-20T05:16:23;21.60;;;6.93;;
54121;SDS011;40029;58.708;50.190;2023-03-20T05:19:21;21.13;;;6.70;;
54121;SDS011;40029;58.708;50.190;2023-03-20T05:22:10;24.58;;;7.45;;
54121;SDS011;40029;58.708;50.190;2023-03-20T05:25:04;23.33;;;7.35;;
54121;SDS011;40029;58.708;50.190;2023-03-20T05:27:48;25.00;;;7.95;;
54121;SDS011;40029;58.708;50.190;2023-03-20T05:30:52;23.77;;;7.43;;
54121;SDS011;40029;58.708;50.190;2023-03-20T05:34:01;17.63;;;7.07;;
54121;SDS011;40029;58.708;50.190;2023-03-20T05:37:01;25.02;;;7.82;;
54121;SDS011;40029;58.708;50.190;2023-03-20T05:39:45;21.27;;;8.05;;
54121;SDS011;40029;58.708;50.190;2023-03-20T05:42:43;22.30;;;8.07;;
54121;SDS011;40029;58.708;50.190;2023-03-20T05:45:24;37.80;;;10.30;;
54121;SDS011;40029;58.708;50.190;2023-03-20T05:48:17;24.38;;;8.20;;
54121;SDS011;40029;58.708;50.190;2023-03-20T05:51:09;19.55;;;7.30;;
54121;SDS011;40029;58.708;50.190;2023-03-20T05:54:00;24.30;;;8.18;;
54121;SDS011;40029;58.708;50.190;2023-03-20T05:56:50;22.67;;;8.43;;
54121;SDS011;40029;58.708;50.190;2023-03-20T05:59:47;16.35;;;6.50;;
54121;SDS011;40029;58.708;50.190;2023-03-20T06:02:37;17.23;;;6.90;;
54121;SDS011;40029;58.708;50.190;2023-03-20T06:05:23;15.27;;;6.55;;
54121;SDS011;40029;58.708;50.190;2023-03-20T06:07:56;14.60;;;6.28;;
54121;SDS011;40029;58.708;50.190;2023-03-20T06:10:27;14.65;;;7.25;;
54121;SDS011;40029;58.708;50.190;2023-03-20T06:13:00;13.32;;;5.88;;
54121;SDS011;40029;58.708;50.190;2023-03-20T06:15:33;15.52;;;6.82;;
54121;SDS011;40029;58.708;50.190;2023-03-20T06:18:14;21.52;;;9.18;;
54121;SDS011;40029;58.708;50.190;2023-03-20T06:20:45;21.17;;;8.38;;
54121;SDS011;40029;58.708;50.190;2023-03-20T06:23:21;18.25;;;8.60;;
54121;SDS011;40029;58.708;50.190;2023-03-20T06:25:53;18.83;;;7.50;;
54121;SDS011;40029;58.708;50.190;2023-03-20T06:28:25;17.02;;;7.43;;
54121;SDS011;40029;58.708;50.190;2023-03-20T06:31:04;20.75;;;9.20;;
54121;SDS011;40029;58.708;50.190;2023-03-20T06:33:35;29.42;;;11.20;;
54121;SDS011;40029;58.708;50.190;2023-03-20T06:36:07;17.80;;;7.78;;
54121;SDS011;40029;58.708;50.190;2023-03-20T06:38:39;19.02;;;7.95;;
54121;SDS011;40029;58.708;50.190;2023-03-20T06:41:15;16.25;;;7.22;;
54121;SDS011;40029;58.708;50.190;2023-03-20T06:43:47;24.38;;;8.77;;
54121;SDS011;40029;58.708;50.190;2023-03-20T06:46:19;17.27;;;6.85;;
54121;SDS011;40029;58.708;50.190;2023-03-20T06:48:51;21.33;;;8.25;;
54121;SDS011;40029;58.708;50.190;2023-03-20T06:51:23;25.33;;;8.95;;
54121;SDS011;40029;58.708;50.190;2023-03-20T06:53:56;22.77;;;9.38;;
54121;SDS011;40029;58.708;50.190;2023-03-20T06:56:30;35.17;;;12.80;;
54121;SDS011;40029;58.708;50.190;2023-03-20T06:59:01;20.95;;;8.20;;
54121;SDS011;40029;58.708;50.190;2023-03-20T07:01:33;19.83;;;7.80;;
54121;SDS011;40029;58.708;50.190;2023-03-20T07:04:04;27.20;;;9.63;;
54121;SDS011;40029;58.708;50.190;2023-03-20T07:06:42;18.58;;;7.00;;
54121;SDS011;40029;58.708;50.190;2023-03-20T07:09:14;19.27;;;7.40;;
54121;SDS011;40029;58.708;50.190;2023-03-20T07:11:47;16.30;;;7.30;;
54121;SDS011;40029;58.708;50.190;2023-03-20T07:14:18;87.88;;;21.98;;
54121;SDS011;40029;58.708;50.190;2023-03-20T07:16:55;79.40;;;21.70;;
54121;SDS011;40029;58.708;50.190;2023-03-20T07:19:26;69.05;;;21.48;;
54121;SDS011;40029;58.708;50.190;2023-03-20T07:22:01;31.75;;;11.70;;
54121;SDS011;40029;58.708;50.190;2023-03-20T07:24:41;36.63;;;12.55;;
54121;SDS011;40029;58.708;50.190;2023-03-20T07:27:14;24.15;;;9.73;;
54121;SDS011;40029;58.708;50.190;2023-03-20T07:29:46;22.00;;;9.38;;
54121;SDS011;40029;58.708;50.190;2023-03-20T07:34:53;19.25;;;8.38;;
54121;SDS011;40029;58.708;50.190;2023-03-20T07:37:26;18.52;;;7.80;;
54121;SDS011;40029;58.708;50.190;2023-03-20T07:40:06;22.13;;;10.50;;
54121;SDS011;40029;58.708;50.190;2023-03-20T07:42:55;23.08;;;10.95;;
54121;SDS011;40029;58.708;50.190;2023-03-20T07:45:47;22.33;;;8.90;;
54121;SDS011;40029;58.708;50.190;2023-03-20T07:48:18;14.90;;;7.43;;
54121;SDS011;40029;58.708;50.190;2023-03-20T07:50:50;14.93;;;7.03;;
54121;SDS011;40029;58.708;50.190;2023-03-20T07:53:21;15.90;;;6.78;;
54121;SDS011;40029;58.708;50.190;2023-03-20T07:55:52;11.45;;;5.70;;
54121;SDS011;40029;58.708;50.190;2023-03-20T07:58:24;10.52;;;6.03;;
54121;SDS011;40029;58.708;50.190;2023-03-20T08:00:56;7.10;;;3.63;;
54121;SDS011;40029;58.708;50.190;2023-03-20T08:03:28;13.48;;;5.35;;
54121;SDS011;40029;58.708;50.190;2023-03-20T08:05:59;12.18;;;5.25;;
54121;SDS011;40029;58.708;50.190;2023-03-20T08:08:31;25.42;;;7.75;;
54121;SDS011;40029;58.708;50.190;2023-03-20T08:11:02;15.38;;;6.32;;
54121;SDS011;40029;58.708;50.190;2023-03-20T08:13:33;10.50;;;4.63;;
54121;SDS011;40029;58.708;50.190;2023-03-20T08:16:04;8.32;;;3.50;;
54121;SDS011;40029;58.708;50.190;2023-03-20T08:18:35;6.63;;;3.25;;
54121;SDS011;40029;58.708;50.190;2023-03-20T08:21:06;8.95;;;3.95;;
54121;SDS011;40029;58.708;50.190;2023-03-20T08:23:38;11.02;;;4.90;;
54121;SDS011;40029;58.708;50.190;2023-03-20T08:26:09;8.20;;;3.85;;
54121;SDS011;40029;58.708;50.190;2023-03-20T08:28:41;5.65;;;3.45;;
54121;SDS011;40029;58.708;50.190;2023-03-20T08:31:12;10.20;;;4.20;;
54121;SDS011;40029;58.708;50.190;2023-03-20T08:33:44;13.82;;;5.00;;
54121;SDS011;40029;58.708;50.190;2023-03-20T08:36:16;18.65;;;6.70;;
54121;SDS011;40029;58.708;50.190;2023-03-20T08:38:49;12.63;;;4.35;;
54121;SDS011;40029;58.708;50.190;2023-03-20T08:41:20;7.68;;;3.33;;
54121;SDS011;40029;58.708;50.190;2023-03-20T08:43:51;25.35;;;9.10;;
54121;SDS011;40029;58.708;50.190;2023-03-20T08:46:23;17.55;;;5.75;;
54121;SDS011;40029;58.708;50.190;2023-03-20T08:48:54;17.73;;;6.93;;
54121;SDS011;40029;58.708;50.190;2023-03-20T08:51:28;12.70;;;5.80;;
54121;SDS011;40029;58.708;50.190;2023-03-20T08:53:59;21.33;;;7.97;;
54121;SDS011;40029;58.708;50.190;2023-03-20T08:56:30;33.00;;;8.95;;
54121;SDS011;40029;58.708;50.190;2023-03-20T08:59:01;16.05;;;5.45;;
54121;SDS011;40029;58.708;50.190;2023-03-20T09:01:33;9.60;;;3.90;;
54121;SDS011;40029;58.708;50.190;2023-03-20T09:04:05;14.35;;;4.30;;
54121;SDS011;40029;58.708;50.190;2023-03-20T09:06:37;4.57;;;1.98;;
54121;SDS011;40029;58.708;50.190;2023-03-20T09:09:08;5.95;;;2.55;;
54121;SDS011;40029;58.708;50.190;2023-03-20T09:11:40;6.93;;;3.10;;
54121;SDS011;40029;58.708;50.190;2023-03-20T09:14:11;5.28;;;2.75;;
54121;SDS011;40029;58.708;50.190;2023-03-20T09:16:42;7.78;;;2.60;;
54121;SDS011;40029;58.708;50.190;2023-03-20T09:19:13;6.25;;;2.78;;
54121;SDS011;40029;58.708;50.190;2023-03-20T09:21:45;6.13;;;3.30;;
54121;SDS011;40029;58.708;50.190;2023-03-20T09:24:16;9.32;;;4.22;;
54121;SDS011;40029;58.708;50.190;2023-03-20T09:26:48;7.55;;;3.60;;
54121;SDS011;40029;58.708;50.190;2023-03-20T09:29:20;5.78;;;3.78;;
54121;SDS011;40029;58.708;50.190;2023-03-20T09:31:51;6.30;;;3.85;;
54121;SDS011;40029;58.708;50.190;2023-03-20T09:34:24;4.43;;;2.70;;
54121;SDS011;40029;58.708;50.190;2023-03-20T09:36:55;6.38;;;3.53;;
54121;SDS011;40029;58.708;50.190;2023-03-20T09:39:26;13.38;;;5.10;;
54121;SDS011;40029;58.708;50.190;2023-03-20T09:41:59;8.98;;;4.53;;
54121;SDS011;40029;58.708;50.190;2023-03-20T09:44:56;8.40;;;2.97;;
54121;SDS011;40029;58.708;50.190;2023-03-20T09:47:40;3.78;;;1.98;;
54121;SDS011;40029;58.708;50.190;2023-03-20T09:50:25;4.28;;;2.50;;
54121;SDS011;40029;58.708;50.190;2023-03-20T09:56:18;5.32;;;2.67;;
54121;SDS011;40029;58.708;50.190;2023-03-20T09:58:53;5.25;;;2.63;;
54121;SDS011;40029;58.708;50.190;2023-03-20T10:01:30;3.53;;;2.38;;
54121;SDS011;40029;58.708;50.190;2023-03-20T10:04:15;4.88;;;2.72;;
54121;SDS011;40029;58.708;50.190;2023-03-20T10:06:46;6.00;;;2.67;;
54121;SDS011;40029;58.708;50.190;2023-03-20T10:09:21;4.90;;;2.65;;
54121;SDS011;40029;58.708;50.190;2023-03-20T10:14:48;4.85;;;2.47;;
54121;SDS011;40029;58.708;50.190;2023-03-20T10:17:35;3.75;;;2.67;;
54121;SDS011;40029;58.708;50.190;2023-03-20T10:20:10;5.25;;;3.03;;
54121;SDS011;40029;58.708;50.190;2023-03-20T10:22:47;9.82;;;5.07;;
54121;SDS011;40029;58.708;50.190;2023-03-20T10:25:41;13.88;;;5.35;;
54121;SDS011;40029;58.708;50.190;2023-03-20T10:42:27;6.78;;;3.30;;
54121;SDS011;40029;58.708;50.190;2023-03-20T10:45:49;10.20;;;4.53;;
54121;SDS011;40029;58.708;50.190;2023-03-20T10:48:02;6.07;;;3.45;;
54121;SDS011;40029;58.708;50.190;2023-03-20T10:50:41;8.10;;;3.95;;
54121;SDS011;40029;58.708;50.190;2023-03-20T10:53:19;3.78;;;2.50;;
54121;SDS011;40029;58.708;50.190;2023-03-20T10:56:14;4.75;;;2.15;;
54121;SDS011;40029;58.708;50.190;2023-03-20T10:58:55;4.20;;;2.30;;
54121;SDS011;40029;58.708;50.190;2023-03-20T11:01:47;4.35;;;2.88;;
54121;SDS011;40029;58.708;50.190;2023-03-20T11:04:18;10.68;;;3.72;;
54121;SDS011;40029;58.708;50.190;2023-03-20T11:09:36;9.15;;;2.92;;
54121;SDS011;40029;58.708;50.190;2023-03-20T11:12:15;4.90;;;2.90;;
54121;SDS011;40029;58.708;50.190;2023-03-20T11:14:49;4.53;;;2.70;;
54121;SDS011;40029;58.708;50.190;2023-03-20T11:17:29;6.70;;;3.17;;
54121;SDS011;40029;58.708;50.190;2023-03-20T11:20:04;5.03;;;3.05;;
54121;SDS011;40029;58.708;50.190;2023-03-20T11:22:36;4.60;;;2.78;;
54121;SDS011;40029;58.708;50.190;2023-03-20T11:25:19;4.95;;;2.72;;
54121;SDS011;40029;58.708;50.190;2023-03-20T11:31:24;6.22;;;2.92;;
54121;SDS011;40029;58.708;50.190;2023-03-20T11:36:55;6.40;;;3.63;;
54121;SDS011;40029;58.708;50.190;2023-03-20T11:39:28;12.65;;;3.08;;
54121;SDS011;40029;58.708;50.190;2023-03-20T11:42:03;10.10;;;4.65;;
54121;SDS011;40029;58.708;50.190;2023-03-20T11:44:58;10.20;;;4.50;;
54121;SDS011;40029;58.708;50.190;2023-03-20T11:47:31;8.77;;;4.18;;
54121;SDS011;40029;58.708;50.190;2023-03-20T11:50:05;10.55;;;4.50;;
54121;SDS011;40029;58.708;50.190;2023-03-20T11:52:54;17.58;;;4.00;;
54121;SDS011;40029;58.708;50.190;2023-03-20T11:55:29;8.75;;;3.17;;
54121;SDS011;40029;58.708;50.190;2023-03-20T11:58:03;7.43;;;4.10;;
54121;SDS011;40029;58.708;50.190;2023-03-20T12:00:37;8.82;;;3.53;;
54121;SDS011;40029;58.708;50.190;2023-03-20T12:06:17;5.80;;;3.53;;
54121;SDS011;40029;58.708;50.190;2023-03-20T12:09:01;6.68;;;3.33;;
54121;SDS011;40029;58.708;50.190;2023-03-20T12:11:39;5.78;;;3.33;;
54121;SDS011;40029;58.708;50.190;2023-03-20T12:20:02;7.93;;;2.90;;
54121;SDS011;40029;58.708;50.190;2023-03-20T12:28:22;11.57;;;3.63;;
54121;SDS011;40029;58.708;50.190;2023-03-20T12:34:02;9.85;;;3.47;;
54121;SDS011;40029;58.708;50.190;2023-03-20T12:36:46;15.70;;;5.07;;
54121;SDS011;40029;58.708;50.190;2023-03-20T12:39:20;12.88;;;4.00;;
54121;SDS011;40029;58.708;50.190;2023-03-20T12:45:11;7.25;;;3.60;;
54121;SDS011;40029;58.708;50.190;2023-03-20T13:07:23;13.25;;;3.92;;
54121;SDS011;40029;58.708;50.190;2023-03-20T13:12:50;19.23;;;10.00;;
54121;SDS011;40029;58.708;50.190;2023-03-20T13:18:39;21.77;;;7.63;;
54121;SDS011;40029;58.708;50.190;2023-03-20T13:21:25;18.92;;;8.55;;
54121;SDS011;40029;58.708;50.190;2023-03-20T13:24:14;11.73;;;6.63;;
54121;SDS011;40029;58.708;50.190;2023-03-20T13:26:51;10.55;;;5.97;;
54121;SDS011;40029;58.708;50.190;2023-03-20T13:36:02;19.92;;;7.53;;
54121;SDS011;40029;58.708;50.190;2023-03-20T13:38:34;17.33;;;7.63;;
54121;SDS011;40029;58.708;50.190;2023-03-20T13:41:10;20.45;;;7.68;;
54121;SDS011;40029;58.708;50.190;2023-03-20T13:43:46;16.05;;;8.38;;
54121;SDS011;40029;58.708;50.190;2023-03-20T13:46:24;18.10;;;5.43;;
54121;SDS011;40029;58.708;50.190;2023-03-20T13:49:03;13.77;;;5.78;;
54121;SDS011;40029;58.708;50.190;2023-03-20T13:54:39;15.30;;;6.30;;
54121;SDS011;40029;58.708;50.190;2023-03-20T14:00:41;28.63;;;8.88;;
54121;SDS011;40029;58.708;50.190;2023-03-20T14:03:39;25.25;;;8.57;;
54121;SDS011;40029;58.708;50.190;2023-03-20T14:06:16;17.60;;;8.55;;
54121;SDS011;40029;58.708;50.190;2023-03-20T14:09:23;18.08;;;8.20;;
54121;SDS011;40029;58.708;50.190;2023-03-20T14:14:45;22.05;;;8.13;;
54121;SDS011;40029;58.708;50.190;2023-03-20T14:19:57;16.10;;;7.03;;
54121;SDS011;40029;58.708;50.190;2023-03-20T14:22:42;18.63;;;7.82;;
54121;SDS011;40029;58.708;50.190;2023-03-20T14:25:18;19.25;;;7.50;;
54121;SDS011;40029;58.708;50.190;2023-03-20T14:30:43;20.75;;;7.97;;
54121;SDS011;40029;58.708;50.190;2023-03-20T14:38:54;30.77;;;10.70;;
54121;SDS011;40029;58.708;50.190;2023-03-20T14:42:00;31.92;;;10.60;;
54121;SDS011;40029;58.708;50.190;2023-03-20T14:50:13;46.35;;;13.65;;
54121;SDS011;40029;58.708;50.190;2023-03-20T14:53:01;42.47;;;14.32;;
54121;SDS011;40029;58.708;50.190;2023-03-20T15:01:16;33.35;;;11.80;;
54121;SDS011;40029;58.708;50.190;2023-03-20T15:06:41;30.65;;;11.55;;
54121;SDS011;40029;58.708;50.190;2023-03-20T15:09:19;37.03;;;12.30;;
54121;SDS011;40029;58.708;50.190;2023-03-20T15:11:53;30.35;;;10.55;;
54121;SDS011;40029;58.708;50.190;2023-03-20T15:14:33;36.45;;;11.32;;
54121;SDS011;40029;58.708;50.190;2023-03-20T15:17:20;33.38;;;11.32;;
54121;SDS011;40029;58.708;50.190;2023-03-20T15:20:06;29.55;;;11.68;;
54121;SDS011;40029;58.708;50.190;2023-03-20T15:25:38;36.55;;;11.27;;
54121;SDS011;40029;58.708;50.190;2023-03-20T15:28:14;29.88;;;12.00;;
54121;SDS011;40029;58.708;50.190;2023-03-20T15:30:49;43.38;;;13.00;;
54121;SDS011;40029;58.708;50.190;2023-03-20T15:33:33;41.35;;;13.55;;
54121;SDS011;40029;58.708;50.190;2023-03-20T15:36:16;46.72;;;14.98;;
54121;SDS011;40029;58.708;50.190;2023-03-20T15:38:49;43.42;;;13.55;;
54121;SDS011;40029;58.708;50.190;2023-03-20T15:41:27;41.53;;;15.75;;
54121;SDS011;40029;58.708;50.190;2023-03-20T15:44:23;36.53;;;12.65;;
54121;SDS011;40029;58.708;50.190;2023-03-20T15:47:00;33.75;;;12.57;;
54121;SDS011;40029;58.708;50.190;2023-03-20T15:49:33;34.75;;;12.45;;
54121;SDS011;40029;58.708;50.190;2023-03-20T15:52:06;41.72;;;13.30;;
54121;SDS011;40029;58.708;50.190;2023-03-20T15:54:42;38.80;;;12.35;;
54121;SDS011;40029;58.708;50.190;2023-03-20T15:57:19;34.03;;;12.00;;
54121;SDS011;40029;58.708;50.190;2023-03-20T15:59:55;34.35;;;12.18;;
54121;SDS011;40029;58.708;50.190;2023-03-20T16:02:28;32.08;;;11.38;;
54121;SDS011;40029;58.708;50.190;2023-03-20T16:05:00;37.22;;;12.88;;
54121;SDS011;40029;58.708;50.190;2023-03-20T16:07:31;34.47;;;12.98;;
54121;SDS011;40029;58.708;50.190;2023-03-20T16:10:03;32.30;;;12.05;;
54121;SDS011;40029;58.708;50.190;2023-03-20T16:12:50;44.63;;;17.58;;
54121;SDS011;40029;58.708;50.190;2023-03-20T16:15:25;36.25;;;12.63;;
54121;SDS011;40029;58.708;50.190;2023-03-20T16:18:01;36.58;;;12.68;;
54121;SDS011;40029;58.708;50.190;2023-03-20T16:20:36;42.60;;;14.27;;
54121;SDS011;40029;58.708;50.190;2023-03-20T16:23:09;39.05;;;12.65;;
54121;SDS011;40029;58.708;50.190;2023-03-20T16:25:44;36.85;;;14.07;;
54121;SDS011;40029;58.708;50.190;2023-03-20T16:28:15;42.90;;;13.07;;
54121;SDS011;40029;58.708;50.190;2023-03-20T16:30:46;33.38;;;13.13;;
54121;SDS011;40029;58.708;50.190;2023-03-20T16:33:20;47.25;;;14.60;;
54121;SDS011;40029;58.708;50.190;2023-03-20T16:35:51;40.50;;;12.82;;
54121;SDS011;40029;58.708;50.190;2023-03-20T16:38:25;44.80;;;14.57;;
54121;SDS011;40029;58.708;50.190;2023-03-20T16:44:07;43.72;;;13.90;;
54121;SDS011;40029;58.708;50.190;2023-03-20T16:47:42;39.30;;;13.73;;
54121;SDS011;40029;58.708;50.190;2023-03-20T16:52:40;38.67;;;12.77;;
54121;SDS011;40029;58.708;50.190;2023-03-20T16:55:16;40.22;;;12.75;;
54121;SDS011;40029;58.708;50.190;2023-03-20T16:57:53;44.40;;;14.20;;
54121;SDS011;40029;58.708;50.190;2023-03-20T17:00:29;49.78;;;16.98;;
54121;SDS011;40029;58.708;50.190;2023-03-20T17:03:10;51.35;;;15.68;;
54121;SDS011;40029;58.708;50.190;2023-03-20T17:05:54;42.28;;;15.65;;
54121;SDS011;40029;58.708;50.190;2023-03-20T17:08:29;47.00;;;15.73;;
54121;SDS011;40029;58.708;50.190;2023-03-20T17:11:11;34.60;;;13.80;;
54121;SDS011;40029;58.708;50.190;2023-03-20T17:13:45;37.13;;;12.88;;
54121;SDS011;40029;58.708;50.190;2023-03-20T17:16:19;38.70;;;13.18;;
54121;SDS011;40029;58.708;50.190;2023-03-20T17:19:05;42.67;;;14.65;;
54121;SDS011;40029;58.708;50.190;2023-03-20T17:21:40;39.78;;;13.65;;
54121;SDS011;40029;58.708;50.190;2023-03-20T17:24:12;42.58;;;13.80;;
54121;SDS011;40029;58.708;50.190;2023-03-20T17:26:45;42.67;;;14.77;;
54121;SDS011;40029;58.708;50.190;2023-03-20T17:29:25;44.00;;;14.45;;
54121;SDS011;40029;58.708;50.190;2023-03-20T17:31:56;40.20;;;13.98;;
54121;SDS011;40029;58.708;50.190;2023-03-20T17:34:27;53.50;;;14.85;;
54121;SDS011;40029;58.708;50.190;2023-03-20T17:36:58;40.17;;;14.27;;
54121;SDS011;40029;58.708;50.190;2023-03-20T17:39:32;35.83;;;13.03;;
54121;SDS011;40029;58.708;50.190;2023-03-20T17:42:05;42.97;;;14.07;;
54121;SDS011;40029;58.708;50.190;2023-03-20T17:45:00;42.88;;;13.80;;
54121;SDS011;40029;58.708;50.190;2023-03-20T17:47:34;44.70;;;14.10;;
54121;SDS011;40029;58.708;50.190;2023-03-20T17:50:06;46.13;;;15.27;;
54121;SDS011;40029;58.708;50.190;2023-03-20T17:52:39;50.05;;;16.33;;
54121;SDS011;40029;58.708;50.190;2023-03-20T17:55:11;50.55;;;16.48;;
54121;SDS011;40029;58.708;50.190;2023-03-20T17:57:42;49.97;;;16.20;;
54121;SDS011;40029;58.708;50.190;2023-03-20T18:00:17;58.15;;;17.13;;
54121;SDS011;40029;58.708;50.190;2023-03-20T18:02:52;50.53;;;16.05;;
54121;SDS011;40029;58.708;50.190;2023-03-20T18:05:23;50.33;;;17.63;;
54121;SDS011;40029;58.708;50.190;2023-03-20T18:07:55;52.78;;;17.95;;
54121;SDS011;40029;58.708;50.190;2023-03-20T18:10:27;56.75;;;17.17;;
54121;SDS011;40029;58.708;50.190;2023-03-20T18:13:04;57.97;;;17.83;;
54121;SDS011;40029;58.708;50.190;2023-03-20T18:15:35;56.33;;;18.88;;
54121;SDS011;40029;58.708;50.190;2023-03-20T18:18:08;51.47;;;17.13;;
54121;SDS011;40029;58.708;50.190;2023-03-20T18:20:39;55.20;;;18.08;;